createdAt,value
2023-09-14T00:03:14.716Z,24.60
2023-09-14T00:08:18.054Z,24.60
2023-09-14T00:13:20.195Z,24.70
2023-09-14T00:18:22.866Z,24.70
2023-09-14T00:23:25.097Z,24.80
2023-09-14T00:28:27.280Z,24.80
2023-09-14T00:33:29.462Z,24.80
2023-09-14T00:38:31.595Z,24.70
2023-09-14T00:43:35.609Z,24.70
2023-09-14T00:48:38.942Z,24.70
2023-09-14T00:53:41.516Z,24.70
2023-09-14T00:58:44.042Z,24.70
2023-09-14T01:03:47.089Z,24.70
2023-09-14T01:08:50.589Z,24.70
2023-09-14T01:14:48.793Z,24.60
2023-09-14T01:20:17.716Z,24.60
2023-09-14T01:25:46.908Z,24.60
2023-09-14T01:30:49.964Z,24.60
2023-09-14T01:35:57.981Z,24.50
2023-09-14T01:41:02.508Z,24.50
2023-09-14T01:46:05.800Z,24.40
2023-09-14T01:51:08.115Z,24.40
2023-09-14T01:56:10.361Z,24.40
2023-09-14T02:01:14.360Z,24.40
2023-09-14T02:06:16.644Z,24.40
2023-09-14T02:11:18.830Z,24.40
2023-09-14T02:16:21.047Z,24.30
2023-09-14T02:21:23.249Z,24.40
2023-09-14T02:26:25.431Z,24.40
2023-09-14T02:31:27.856Z,24.30
2023-09-14T02:36:30.117Z,24.20
2023-09-14T02:41:33.741Z,24.20
2023-09-14T02:46:35.969Z,24.10
2023-09-14T02:51:38.154Z,23.70
2023-09-14T02:56:41.689Z,24.00
2023-09-14T03:01:50.979Z,24.20
2023-09-14T03:06:55.868Z,24.30
2023-09-14T03:11:58.421Z,24.30
2023-09-14T03:17:00.767Z,24.30
2023-09-14T03:22:04.048Z,24.20
2023-09-14T03:27:06.636Z,23.80
2023-09-14T03:32:09.501Z,23.70
2023-09-14T03:37:12.120Z,23.30
2023-09-14T03:42:14.420Z,23.00
2023-09-14T03:47:17.364Z,22.10
2023-09-14T03:52:19.526Z,21.60
2023-09-14T03:57:22.375Z,20.70
2023-09-14T04:02:25.606Z,20.40
2023-09-14T04:07:27.799Z,21.00
2023-09-14T04:12:29.946Z,21.40
2023-09-14T04:17:32.216Z,22.20
2023-09-14T04:22:35.589Z,22.10
2023-09-14T04:27:37.874Z,22.10
2023-09-14T04:32:40.359Z,21.40
2023-09-14T04:37:42.707Z,21.50
2023-09-14T04:42:45.008Z,20.40
2023-09-14T04:47:47.671Z,20.10
2023-09-14T04:52:50.578Z,20.20
2023-09-14T04:57:53.450Z,21.70
2023-09-14T05:02:56.610Z,22.50
2023-09-14T05:08:00.047Z,22.80
2023-09-14T05:13:03.969Z,21.30
2023-09-14T05:18:07.992Z,20.50
2023-09-14T05:23:10.557Z,21.50
2023-09-14T05:28:13.964Z,22.40
2023-09-14T05:33:16.570Z,21.30
2023-09-14T05:38:18.889Z,20.90
2023-09-14T05:43:21.234Z,20.60
2023-09-14T05:48:24.880Z,21.40
2023-09-14T05:53:27.039Z,22.20
2023-09-14T05:58:29.292Z,22.50
2023-09-14T06:03:31.771Z,21.70
2023-09-14T06:08:34.909Z,22.50
2023-09-14T06:13:37.174Z,22.80
2023-09-14T06:18:39.315Z,23.00
2023-09-14T06:23:41.765Z,23.10
2023-09-14T06:28:44.475Z,23.20
2023-09-14T06:33:47.048Z,23.50
2023-09-14T06:38:49.961Z,23.70
2023-09-14T06:43:52.162Z,23.80
2023-09-14T06:48:54.328Z,23.90
2023-09-14T06:53:56.544Z,24.00
2023-09-14T06:58:58.843Z,24.00
2023-09-14T07:04:01.779Z,23.90
2023-09-14T07:09:05.825Z,23.80
2023-09-14T07:14:08.102Z,23.70
2023-09-14T07:19:10.544Z,23.70
2023-09-14T07:24:13.297Z,23.40
2023-09-14T07:29:15.472Z,23.70
2023-09-14T07:34:18.071Z,23.90
2023-09-14T07:39:21.933Z,24.00
2023-09-14T07:44:24.813Z,24.10
2023-09-14T07:49:27.052Z,24.10
2023-09-14T07:54:29.325Z,24.20
2023-09-14T07:59:31.525Z,24.00
2023-09-14T08:04:33.996Z,23.80
2023-09-14T08:09:36.200Z,23.50
2023-09-14T08:14:38.738Z,23.90
2023-09-14T08:19:41.077Z,23.80
2023-09-14T08:24:43.281Z,22.20
2023-09-14T08:29:46.633Z,20.90
2023-09-14T08:34:48.933Z,20.20
2023-09-14T08:39:53.057Z,20.90
2023-09-14T08:44:56.549Z,20.00
2023-09-14T08:50:01.693Z,20.00
2023-09-14T08:55:04.895Z,20.10
2023-09-14T09:00:16.539Z,19.90
2023-09-14T09:05:20.841Z,20.20
2023-09-14T09:10:29.957Z,20.60
2023-09-14T09:15:36.368Z,21.00
2023-09-14T09:20:47.380Z,21.30
2023-09-14T09:25:54.472Z,20.60
2023-09-14T09:30:56.800Z,21.40
2023-09-14T09:36:01.933Z,21.80
2023-09-14T09:41:12.950Z,22.80
2023-09-14T09:46:18.749Z,20.70
2023-09-14T09:51:25.924Z,21.70
2023-09-14T09:56:28.255Z,20.70
2023-09-14T10:01:31.720Z,22.40
2023-09-14T10:06:34.483Z,23.40
2023-09-14T10:11:38.193Z,23.90
2023-09-14T10:16:45.821Z,24.20
2023-09-14T10:21:53.875Z,24.40
2023-09-14T10:26:57.654Z,24.70
2023-09-14T10:32:02.253Z,24.80
2023-09-14T10:37:05.968Z,25.10
2023-09-14T10:42:08.170Z,25.20
2023-09-14T10:47:14.763Z,25.20
2023-09-14T10:52:26.291Z,25.10
2023-09-14T10:57:30.953Z,25.10
2023-09-14T21:17:18.142Z,25.30
2023-09-14T21:22:20.302Z,21.50
2023-09-14T21:27:22.559Z,21.70
2023-09-14T21:32:24.770Z,22.60
2023-09-14T21:37:27.045Z,23.00
2023-09-14T21:42:29.457Z,23.20
2023-09-14T21:47:31.939Z,23.40
2023-09-14T21:52:34.506Z,23.50
2023-09-14T21:57:36.870Z,23.60
2023-09-14T22:02:39.193Z,23.60
2023-09-14T22:07:41.550Z,23.70
2023-09-14T22:12:43.698Z,23.80
2023-09-14T22:17:45.984Z,23.70
2023-09-14T22:22:51.180Z,23.70
2023-09-14T22:27:53.542Z,23.70
2023-09-14T22:32:55.728Z,23.60
2023-09-14T22:37:58.035Z,23.60
2023-09-14T22:43:00.306Z,23.50
2023-09-14T22:48:02.599Z,22.90
2023-09-14T22:53:04.989Z,23.00
2023-09-14T22:58:07.321Z,22.60
2023-09-14T23:03:09.656Z,22.00
2023-09-14T23:08:11.932Z,22.30
2023-09-14T23:13:14.145Z,22.30
2023-09-14T23:18:16.705Z,21.10
2023-09-14T23:23:22.042Z,21.70
2023-09-14T23:28:24.285Z,22.50
2023-09-14T23:33:30.865Z,22.80
2023-09-14T23:38:33.274Z,22.70
2023-09-14T23:43:35.910Z,22.70
2023-09-14T23:48:38.281Z,22.80
2023-09-14T23:53:40.443Z,22.70
2023-09-14T23:58:43.916Z,22.80
